Time;durP1;ratioP1;P1;durP2;ratioP2;P2;SDS_P1;SDS_P2;PMS_P1;PMS_P2;Temp;Humidity;BMP_temperature;BMP_pressure;BME280_temperature;BME280_humidity;BME280_pressure;Samples;Min_cycle;Max_cycle;Signal;HPM_P1;HPM_P2
2021/01/27 00:02:18;;;;;;;1.67;1.42;;;15.10;56.40;;;;;;4992911;28;20018;-45
2021/01/27 00:04:44;;;;;;;3.45;0.90;;;15.10;56.40;;;;;;4992761;28;20461;-45
2021/01/27 00:07:09;;;;;;;2.20;1.33;;;15.10;56.40;;;;;;4992544;28;20053;-45
2021/01/27 00:09:35;;;;;;;2.33;1.15;;;15.50;57.30;;;;;;4993399;28;20062;-45
2021/01/27 00:12:00;;;;;;;2.30;1.23;;;15.10;56.50;;;;;;4992531;28;20022;-45
2021/01/27 00:14:26;;;;;;;3.85;1.30;;;15.20;56.60;;;;;;4992468;28;20385;-45
2021/01/27 00:16:52;;;;;;;2.13;1.38;;;15.00;56.50;;;;;;4992712;28;20068;-45
2021/01/27 00:19:17;;;;;;;1.67;1.08;;;15.00;56.50;;;;;;4992403;28;20080;-45
2021/01/27 00:21:43;;;;;;;3.75;1.85;;;15.00;56.50;;;;;;4992478;28;20030;-45
2021/01/27 00:24:09;;;;;;;1.55;1.10;;;15.50;56.80;;;;;;4992468;28;20556;-45
2021/01/27 00:26:34;;;;;;;3.58;1.10;;;15.00;56.60;;;;;;4992686;28;20018;-47
2021/01/27 00:29:00;;;;;;;2.67;1.17;;;15.00;56.60;;;;;;4992608;28;20485;-45
2021/01/27 00:31:26;;;;;;;2.00;0.95;;;14.90;56.60;;;;;;4992773;28;20026;-46
2021/01/27 00:33:51;;;;;;;1.60;1.23;;;14.90;56.60;;;;;;4992583;28;20030;-46
2021/01/27 00:36:17;;;;;;;2.28;1.33;;;14.90;56.60;;;;;;4992385;28;20029;-45
2021/01/27 00:38:43;;;;;;;1.80;0.98;;;14.70;56.60;;;;;;4992254;28;20026;-45
2021/01/27 00:41:08;;;;;;;2.83;1.20;;;14.80;56.70;;;;;;4992427;28;20034;-45
2021/01/27 00:43:34;;;;;;;1.50;1.00;;;14.80;57.20;;;;;;4992291;28;20468;-44
2021/01/27 00:45:59;;;;;;;1.88;1.50;;;14.80;56.60;;;;;;4974888;28;20057;-45
2021/01/27 00:48:25;;;;;;;2.65;1.10;;;14.80;56.70;;;;;;4974951;28;20026;-45
2021/01/27 00:50:51;;;;;;;1.73;1.02;;;14.80;56.70;;;;;;4995861;28;20026;-45
2021/01/27 00:53:17;;;;;;;1.58;1.10;;;14.80;56.70;;;;;;4996268;28;20019;-45
2021/01/27 00:55:43;;;;;;;2.25;1.17;;;14.80;56.70;;;;;;4995886;28;20576;-45
2021/01/27 00:58:09;;;;;;;1.27;1.17;;;14.80;56.70;;;;;;4995903;28;20057;-45
2021/01/27 01:00:40;;;;;;;1.95;1.05;;;14.60;56.70;;;;;;4996077;28;20069;-45
2021/01/27 01:03:08;;;;;;;1.25;0.90;;;14.70;56.70;;;;;;4995756;28;20064;-44
2021/01/27 01:05:36;;;;;;;1.83;1.10;;;14.70;56.70;;;;;;4995611;28;20485;-45
2021/01/27 01:08:03;;;;;;;1.58;1.10;;;14.70;56.80;;;;;;4995556;28;20033;-45
2021/01/27 01:10:33;;;;;;;1.17;0.98;;;14.70;56.80;;;;;;4996578;28;20054;-45
2021/01/27 01:12:59;;;;;;;2.55;1.23;;;14.70;56.80;;;;;;4995544;28;20045;-45
2021/01/27 01:15:27;;;;;;;1.92;1.38;;;14.70;56.80;;;;;;4995810;28;20358;-45
2021/01/27 01:17:53;;;;;;;2.15;1.20;;;14.60;76.80;;;;;;4995396;28;20038;-45
2021/01/27 01:20:19;;;;;;;1.80;0.88;;;14.60;56.80;;;;;;4995696;28;20022;-46
2021/01/27 01:22:50;;;;;;;1.30;1.05;;;14.60;56.80;;;;;;4995549;28;20384;-45
2021/01/27 01:25:18;;;;;;;1.30;1.10;;;14.60;56.80;;;;;;4995618;28;20108;-45
2021/01/27 01:27:45;;;;;;;1.08;0.90;;;14.60;56.80;;;;;;4995294;28;20117;-44
2021/01/27 01:30:16;;;;;;;1.73;1.00;;;14.70;78.00;;;;;;4995072;28;20065;-46
2021/01/27 01:32:42;;;;;;;1.65;1.30;;;14.60;56.90;;;;;;4995265;28;20097;-45
2021/01/27 01:35:08;;;;;;;2.13;1.00;;;14.60;56.90;;;;;;4995469;28;20428;-44
2021/01/27 01:37:35;;;;;;;1.20;1.10;;;14.60;56.90;;;;;;4995078;28;20210;-44
2021/01/27 01:40:03;;;;;;;2.95;1.60;;;14.50;56.80;;;;;;4995065;28;20536;-45
2021/01/27 01:42:28;;;;;;;1.00;0.80;;;14.50;56.90;;;;;;4995343;28;20038;-44
2021/01/27 01:44:54;;;;;;;1.42;1.23;;;14.60;57.00;;;;;;4995346;28;20080;-45
2021/01/27 01:47:19;;;;;;;1.27;1.00;;;14.50;56.90;;;;;;4995022;28;20105;-45
2021/01/27 01:49:45;;;;;;;1.23;1.00;;;14.50;56.90;;;;;;4994879;28;20048;-45
2021/01/27 01:52:11;;;;;;;1.17;1.05;;;14.50;57.00;;;;;;4994962;28;20102;-45
2021/01/27 01:54:41;;;;;;;1.83;1.10;;;14.50;57.00;;;;;;4995037;28;20030;-44
2021/01/27 01:57:15;;;;;;;1.40;0.85;;;14.50;56.90;;;;;;4995050;28;20101;-44
2021/01/27 02:00:05;;;;;;;2.17;1.20;;;14.50;57.00;;;;;;4994324;28;20037;-45
2021/01/27 02:02:34;;;;;;;0.93;0.68;;;14.40;56.90;;;;;;4995019;28;20373;-44
2021/01/27 02:05:04;;;;;;;1.90;1.10;;;14.40;57.00;;;;;;4994815;28;20026;-45
2021/01/27 02:07:30;;;;;;;1.98;0.88;;;14.40;78.00;;;;;;4994819;28;20033;-45
2021/01/27 02:09:55;;;;;;;1.42;1.10;;;14.40;57.00;;;;;;4995514;28;20417;-45
2021/01/27 02:12:49;;;;;;;1.48;0.85;;;14.40;56.90;;;;;;4994562;28;20026;-46
2021/01/27 02:15:48;;;;;;;1.67;1.00;;;14.40;56.90;;;;;;4994818;28;20435;-45
2021/01/27 02:18:49;;;;;;;1.38;0.98;;;14.40;57.00;;;;;;4994399;28;20031;-44
2021/01/27 02:21:30;;;;;;;0.68;0.68;;;14.30;56.90;;;;;;4977054;28;20535;-44
2021/01/27 02:24:45;;;;;;;1.35;0.90;;;14.30;77.70;;;;;;4994313;28;20488;-45
2021/01/27 02:27:24;;;;;;;0.88;0.70;;;14.30;57.00;;;;;;4994542;28;20097;-45
2021/01/27 02:30:11;;;;;;;1.77;1.17;;;14.30;57.00;;;;;;4994432;28;20038;-46
2021/01/27 02:33:02;;;;;;;1.45;1.00;;;14.30;57.00;;;;;;4994231;28;20097;-45
2021/01/27 02:35:36;;;;;;;1.55;0.93;;;14.30;57.00;;;;;;4994189;28;20026;-44
2021/01/27 02:38:11;;;;;;;1.17;1.00;;;14.30;57.00;;;;;;4994127;28;20026;-44
2021/01/27 02:40:54;;;;;;;1.95;0.70;;;14.20;77.90;;;;;;4994293;28;20496;-45
2021/01/27 02:43:30;;;;;;;1.40;0.90;;;14.20;57.00;;;;;;4993911;28;20045;-44
2021/01/27 02:46:22;;;;;;;2.58;0.85;;;14.20;57.00;;;;;;4993974;28;20026;-45
2021/01/27 02:48:57;;;;;;;1.27;0.93;;;14.20;57.00;;;;;;4956097;28;20046;-45
2021/01/27 02:51:29;;;;;;;1.58;1.10;;;14.20;57.10;;;;;;4993816;28;20033;-45
2021/01/27 02:54:24;;;;;;;1.25;1.10;;;14.20;57.00;;;;;;4993821;28;20037;-45
2021/01/27 02:57:06;;;;;;;2.35;1.33;;;14.20;57.00;;;;;;4993842;28;20014;-44
2021/01/27 02:59:43;;;;;;;1.35;0.98;;;14.20;57.00;;;;;;4993879;28;20031;-45
2021/01/27 03:02:34;;;;;;;1.80;1.00;;;14.10;78.30;;;;;;4993658;28;20023;-45
2021/01/27 03:05:06;;;;;;;1.58;1.10;;;13.90;57.00;;;;;;4993885;28;20030;-46
2021/01/27 03:07:34;;;;;;;1.15;0.88;;;14.10;57.00;;;;;;4993599;28;20539;-44
2021/01/27 03:10:15;;;;;;;1.35;0.88;;;14.10;57.10;;;;;;4994481;28;20061;-45
2021/01/27 03:12:41;;;;;;;0.85;0.73;;;14.10;57.10;;;;;;4992995;28;20074;-45
2021/01/27 03:15:09;;;;;;;0.70;0.70;;;14.10;57.20;;;;;;4993729;28;20465;-45
2021/01/27 03:17:35;;;;;;;1.50;0.90;;;14.10;57.10;;;;;;4993401;28;20114;-45
2021/01/27 03:20:32;;;;;;;1.02;0.70;;;14.10;57.10;;;;;;4993614;28;20101;-45
2021/01/27 03:23:12;;;;;;;1.30;0.90;;;14.10;57.20;;;;;;4977259;28;20046;-45
2021/01/27 03:25:48;;;;;;;1.48;0.70;;;14.10;57.20;;;;;;4993272;28;20069;-44
2021/01/27 03:28:34;;;;;;;1.67;0.90;;;14.00;57.10;;;;;;4993137;28;20520;-44
2021/01/27 03:31:00;;;;;;;2.15;0.77;;;14.00;77.50;;;;;;4993462;28;20066;-44
2021/01/27 03:33:36;;;;;;;0.70;0.70;;;14.00;57.20;;;;;;4993102;28;20026;-44
2021/01/27 03:36:05;;;;;;;0.95;0.70;;;14.10;57.10;;;;;;4993074;28;20022;-44
2021/01/27 03:38:39;;;;;;;0.60;0.60;;;14.00;57.10;;;;;;4993249;28;20382;-45
2021/01/27 03:41:29;;;;;;;1.30;0.80;;;14.00;57.10;;;;;;4992935;28;20790;-45
2021/01/27 03:44:25;;;;;;;1.05;0.77;;;14.00;57.20;;;;;;4992925;28;20038;-44
2021/01/27 03:46:59;;;;;;;1.33;0.95;;;14.00;57.20;;;;;;4992978;28;20034;-44
2021/01/27 03:49:34;;;;;;;0.93;0.82;;;14.00;56.70;;;;;;4993059;28;20038;-45
2021/01/27 03:52:07;;;;;;;1.00;0.70;;;14.00;57.30;;;;;;4993131;28;20022;-44
2021/01/27 03:54:37;;;;;;;0.82;0.80;;;14.00;57.20;;;;;;4993017;28;20034;-44
2021/01/27 03:57:11;;;;;;;0.90;0.80;;;13.90;57.20;;;;;;4993270;28;20026;-44
2021/01/27 03:59:37;;;;;;;1.00;0.60;;;13.90;57.20;;;;;;4993003;28;20027;-45
2021/01/27 04:02:13;;;;;;;0.85;0.57;;;13.90;57.20;;;;;;4992785;28;20044;-45
2021/01/27 04:04:39;;;;;;;1.15;0.60;;;13.90;57.30;;;;;;4992752;28;20027;-44
2021/01/27 04:07:04;;;;;;;1.10;0.70;;;13.20;56.90;;;;;;4992584;28;20393;-45
2021/01/27 04:09:30;;;;;;;0.65;0.65;;;13.90;57.20;;;;;;4993458;28;20058;-45
2021/01/27 04:11:56;;;;;;;0.55;0.52;;;13.70;57.20;;;;;;4992584;28;20037;-45
2021/01/27 04:14:21;;;;;;;0.60;0.60;;;13.90;57.50;;;;;;4992599;28;20029;-45
2021/01/27 04:16:47;;;;;;;0.50;0.50;;;13.90;57.50;;;;;;4992739;28;20018;-45
2021/01/27 04:19:12;;;;;;;1.65;0.68;;;14.00;57.60;;;;;;4992435;28;20062;-45
2021/01/27 04:21:38;;;;;;;0.95;0.60;;;13.90;57.30;;;;;;4992581;28;20022;-45
2021/01/27 04:24:04;;;;;;;0.90;0.60;;;14.10;57.40;;;;;;4994887;28;20022;-45
2021/01/27 04:26:30;;;;;;;1.20;0.57;;;14.10;57.70;;;;;;4996607;28;20057;-45
2021/01/27 04:28:56;;;;;;;1.05;0.70;;;14.10;57.50;;;;;;4996838;28;20061;-45
2021/01/27 04:31:21;;;;;;;0.80;0.80;;;14.20;78.50;;;;;;4996666;28;20022;-46
2021/01/27 04:33:47;;;;;;;1.00;0.52;;;14.10;57.70;;;;;;4996529;28;20030;-46
2021/01/27 04:36:13;;;;;;;0.82;0.70;;;14.10;57.60;;;;;;4996566;28;20076;-45
2021/01/27 04:38:40;;;;;;;1.50;0.90;;;14.10;57.50;;;;;;4996522;28;20026;-45
2021/01/27 04:41:06;;;;;;;0.68;0.50;;;14.10;57.50;;;;;;4996735;28;20022;-45
2021/01/27 04:43:33;;;;;;;0.90;0.70;;;14.10;57.40;;;;;;4996270;28;20037;-45
2021/01/27 04:46:09;;;;;;;1.60;0.60;;;14.20;57.50;;;;;;4996603;28;20114;-45
2021/01/27 04:49:04;;;;;;;1.20;0.80;;;14.20;57.40;;;;;;4996188;28;20116;-45
2021/01/27 04:51:49;;;;;;;1.63;0.57;;;14.20;57.30;;;;;;4992030;28;20042;-46
2021/01/27 04:54:35;;;;;;;0.60;0.50;;;14.20;57.30;;;;;;4996087;28;20026;-45
2021/01/27 04:57:19;;;;;;;0.52;0.52;;;14.20;57.30;;;;;;4996260;28;20133;-44
2021/01/27 04:59:57;;;;;;;1.40;0.52;;;14.20;57.30;;;;;;4996397;28;20018;-45
2021/01/27 05:03:04;;;;;;;0.60;0.57;;;14.20;57.20;;;;;;4996079;28;20065;-46
2021/01/27 05:05:33;;;;;;;0.70;0.60;;;14.20;57.20;;;;;;4995982;28;20030;-44
2021/01/27 05:08:18;;;;;;;0.80;0.70;;;14.20;57.20;;;;;;4995790;28;20477;-44
2021/01/27 05:10:54;;;;;;;0.52;0.50;;;14.20;57.20;;;;;;4996803;28;20054;-45
2021/01/27 05:13:33;;;;;;;1.02;0.68;;;14.40;77.40;;;;;;4995756;28;20030;-44
2021/01/27 05:16:01;;;;;;;0.50;0.40;;;14.20;57.10;;;;;;4995652;28;20026;-47
2021/01/27 05:18:27;;;;;;;1.17;0.60;;;14.50;57.30;;;;;;4995816;28;20138;-44
2021/01/27 05:20:53;;;;;;;0.55;0.50;;;14.20;57.10;;;;;;4995541;28;20065;-45
2021/01/27 05:23:19;;;;;;;0.88;0.50;;;14.20;57.10;;;;;;4995575;28;20035;-44
2021/01/27 05:25:54;;;;;;;0.77;0.50;;;14.20;57.10;;;;;;4995735;28;20101;-44
2021/01/27 05:28:25;;;;;;;0.88;0.52;;;14.20;57.10;;;;;;4995671;28;20105;-44
2021/01/27 05:30:56;;;;;;;0.43;0.40;;;14.30;57.30;;;;;;4995705;28;20106;-44
2021/01/27 05:33:47;;;;;;;0.50;0.40;;;14.30;57.50;;;;;;4995424;28;20028;-44
2021/01/27 05:36:26;;;;;;;0.65;0.40;;;14.30;57.50;;;;;;4994370;28;20065;-44
2021/01/27 05:39:13;;;;;;;1.13;0.82;;;14.10;78.40;;;;;;4995436;28;20065;-44
2021/01/27 05:41:39;;;;;;;0.50;0.50;;;14.30;57.60;;;;;;4995047;28;20018;-44
2021/01/27 05:44:15;;;;;;;0.63;0.50;;;14.30;57.40;;;;;;4995395;28;20022;-44
2021/01/27 05:46:41;;;;;;;0.73;0.73;;;14.30;57.70;;;;;;4995355;28;20105;-44
2021/01/27 05:49:28;;;;;;;1.10;0.50;;;14.30;57.80;;;;;;4994911;28;20046;-44
2021/01/27 05:52:09;;;;;;;0.80;0.75;;;14.20;57.90;;;;;;4995284;28;20373;-44
2021/01/27 05:54:35;;;;;;;0.35;0.32;;;14.20;57.90;;;;;;4995211;28;20026;-45
2021/01/27 05:57:00;;;;;;;0.80;0.47;;;14.20;57.90;;;;;;4994846;28;20446;-44
2021/01/27 05:59:28;;;;;;;0.50;0.30;;;14.10;57.80;;;;;;4995069;28;20030;-44
2021/01/27 06:02:01;;;;;;;0.68;0.60;;;14.10;57.80;;;;;;4994702;28;20511;-44
2021/01/27 06:04:31;;;;;;;1.05;0.50;;;14.10;57.80;;;;;;4994829;28;20022;-44
2021/01/27 06:06:59;;;;;;;0.50;0.40;;;14.10;58.40;;;;;;4994658;28;20030;-44
2021/01/27 06:09:30;;;;;;;0.50;0.40;;;14.10;58.40;;;;;;4995608;28;20066;-44
2021/01/27 06:12:23;;;;;;;0.40;0.40;;;14.30;58.40;;;;;;4994830;28;20065;-43
2021/01/27 06:15:11;;;;;;;0.43;0.40;;;14.40;58.30;;;;;;4983824;28;20030;-45
2021/01/27 06:17:47;;;;;;;0.32;0.30;;;14.50;58.00;;;;;;4994660;28;20030;-43
2021/01/27 06:20:33;;;;;;;0.47;0.40;;;14.60;57.80;;;;;;4994532;28;20137;-43
2021/01/27 06:23:05;;;;;;;0.52;0.32;;;14.70;57.70;;;;;;4994690;28;20073;-44
2021/01/27 06:25:47;;;;;;;0.40;0.40;;;14.80;57.60;;;;;;4994595;28;20096;-44
2021/01/27 06:28:34;;;;;;;0.47;0.43;;;14.80;57.40;;;;;;4994504;28;20382;-44
2021/01/27 06:31:02;;;;;;;0.93;0.50;;;14.90;57.20;;;;;;4994292;28;20096;-43
2021/01/27 06:33:49;;;;;;;0.30;0.30;;;14.90;57.10;;;;;;4994531;28;20037;-44
2021/01/27 06:36:55;;;;;;;0.65;0.40;;;14.90;57.10;;;;;;4993889;28;20026;-45
2021/01/27 06:39:46;;;;;;;0.75;0.75;;;15.00;57.00;;;;;;4992737;28;20084;-43
2021/01/27 06:42:37;;;;;;;0.60;0.50;;;16.10;57.50;;;;;;4994335;28;20432;-42
2021/01/27 06:45:06;;;;;;;0.90;0.57;;;15.10;56.90;;;;;;4994187;28;20085;-44
2021/01/27 06:48:13;;;;;;;0.40;0.32;;;15.20;56.80;;;;;;4994272;28;20428;-43
2021/01/27 06:51:06;;;;;;;0.40;0.40;;;15.20;56.70;;;;;;4994138;28;20066;-44
2021/01/27 06:53:50;;;;;;;1.85;0.47;;;15.20;56.50;;;;;;4993911;28;20168;-43
2021/01/27 06:56:27;;;;;;;0.32;0.30;;;15.30;56.50;;;;;;4993757;28;20030;-43
2021/01/27 06:59:30;;;;;;;0.55;0.40;;;15.30;56.40;;;;;;4993821;28;20381;-44
2021/01/27 07:02:23;;;;;;;2.05;0.35;;;15.40;56.30;;;;;;4994016;28;20034;-44
2021/01/27 07:05:16;;;;;;;0.60;0.47;;;15.40;56.60;;;;;;4993052;28;20547;-46
2021/01/27 07:08:05;;;;;;;0.60;0.47;;;15.40;56.40;;;;;;4992134;28;20030;-44
2021/01/27 07:10:33;;;;;;;3.20;0.35;;;15.40;56.30;;;;;;4992842;28;20081;-45
2021/01/27 07:13:06;;;;;;;0.30;0.30;;;15.50;56.20;;;;;;4991933;28;20027;-44
2021/01/27 07:15:57;;;;;;;0.40;0.30;;;15.50;56.20;;;;;;4991816;28;20060;-44
2021/01/27 07:19:00;;;;;;;0.57;0.43;;;15.50;56.10;;;;;;4992221;28;20034;-44
2021/01/27 07:21:54;;;;;;;0.80;0.60;;;15.60;55.40;;;;;;4993146;28;20564;-44
2021/01/27 07:24:26;;;;;;;1.25;0.38;;;15.60;55.90;;;;;;4985850;28;20034;-43
2021/01/27 07:26:59;;;;;;;1.35;0.40;;;15.60;55.90;;;;;;4993245;28;20041;-43
2021/01/27 07:29:30;;;;;;;0.40;0.32;;;15.60;55.80;;;;;;4993317;28;20113;-44
2021/01/27 07:32:05;;;;;;;1.65;0.50;;;15.50;55.70;;;;;;4975613;28;20485;-44
2021/01/27 07:34:44;;;;;;;0.57;0.35;;;15.70;55.80;;;;;;4992921;28;20038;-43
2021/01/27 07:37:37;;;;;;;0.38;0.30;;;15.70;55.80;;;;;;4993292;28;20026;-42
2021/01/27 07:40:31;;;;;;;0.63;0.30;;;15.70;55.80;;;;;;4993191;28;20037;-43
2021/01/27 07:43:05;;;;;;;0.73;0.40;;;15.70;55.90;;;;;;4993019;28;20026;-43
2021/01/27 07:45:34;;;;;;;1.27;0.60;;;15.70;55.90;;;;;;4993069;28;20027;-43
2021/01/27 07:48:21;;;;;;;3.28;0.70;;;15.80;55.90;;;;;;4992749;28;20022;-43
2021/01/27 07:50:56;;;;;;;1.00;0.68;;;15.70;56.00;;;;;;4992639;28;20157;-43
2021/01/27 07:53:42;;;;;;;2.15;0.40;;;15.80;56.00;;;;;;4992848;28;20116;-43
2021/01/27 07:56:34;;;;;;;0.90;0.47;;;15.80;56.00;;;;;;4992937;28;20365;-43
2021/01/27 07:59:18;;;;;;;3.20;0.38;;;16.00;55.70;;;;;;4992347;28;20034;-43
2021/01/27 08:01:52;;;;;;;1.75;0.40;;;16.10;55.30;;;;;;4992675;28;20022;-43
2021/01/27 08:04:41;;;;;;;0.45;0.45;;;16.20;55.40;;;;;;4993027;28;20026;-43
2021/01/27 08:07:21;;;;;;;0.60;0.50;;;16.20;55.50;;;;;;4984983;28;20515;-42
2021/01/27 08:09:48;;;;;;;1.85;0.30;;;16.10;55.60;;;;;;4993857;28;20065;-43
2021/01/27 08:12:41;;;;;;;1.02;0.43;;;16.10;55.80;;;;;;4992878;28;20102;-43
2021/01/27 08:15:34;;;;;;;1.55;0.40;;;16.00;56.00;;;;;;4992523;28;20040;-44
2021/01/27 08:18:12;;;;;;;3.30;0.80;;;16.00;56.30;;;;;;4992454;28;20128;-44
2021/01/27 08:20:43;;;;;;;2.38;0.38;;;15.90;56.70;;;;;;4992395;28;20631;-43
2021/01/27 08:23:20;;;;;;;0.77;0.47;;;15.90;57.10;;;;;;4992571;28;20027;-43
2021/01/27 08:26:03;;;;;;;0.40;0.40;;;15.90;57.20;;;;;;4992704;28;20387;-43
2021/01/27 08:28:38;;;;;;;0.63;0.47;;;15.80;78.40;;;;;;4992700;28;20441;-43
2021/01/27 08:31:07;;;;;;;1.58;0.60;;;15.80;58.30;;;;;;4992376;28;20037;-42
2021/01/27 08:33:46;;;;;;;0.95;0.52;;;15.80;58.50;;;;;;4992353;28;20030;-42
2021/01/27 08:36:30;;;;;;;2.73;0.60;;;15.80;59.40;;;;;;4992719;28;20037;-42
2021/01/27 08:38:56;;;;;;;1.88;0.60;;;15.80;59.60;;;;;;4992619;28;20101;-42
2021/01/27 08:41:52;;;;;;;6.55;0.80;;;15.80;60.00;;;;;;4992496;28;20028;-42
2021/01/27 08:44:20;;;;;;;1.92;1.33;;;15.80;60.00;;;;;;4976082;28;20034;-42
2021/01/27 08:47:00;;;;;;;3.42;1.25;;;15.80;60.70;;;;;;4992423;28;20035;-42
2021/01/27 08:49:50;;;;;;;4.85;1.20;;;15.90;61.20;;;;;;4992054;28;20100;-42
2021/01/27 08:52:16;;;;;;;2.58;1.23;;;15.90;60.80;;;;;;4992416;28;20034;-42
2021/01/27 08:54:41;;;;;;;2.65;1.27;;;15.90;60.50;;;;;;4992122;28;20077;-44
2021/01/27 08:57:28;;;;;;;2.17;0.82;;;15.80;60.20;;;;;;4974519;28;20035;-43
2021/01/27 09:00:13;;;;;;;3.00;0.93;;;15.80;60.00;;;;;;4992162;28;20019;-42
2021/01/27 09:02:52;;;;;;;1.92;1.00;;;15.80;59.90;;;;;;4992380;28;20032;-42
2021/01/27 09:05:20;;;;;;;5.32;1.02;;;15.80;59.70;;;;;;4992352;28;20030;-42
2021/01/27 09:08:00;;;;;;;4.75;0.60;;;15.80;59.60;;;;;;4974476;28;20034;-43
2021/01/27 09:10:32;;;;;;;2.45;0.80;;;15.80;59.50;;;;;;4994301;28;20524;-43
2021/01/27 09:12:58;;;;;;;2.33;1.15;;;15.80;59.30;;;;;;4978145;28;20081;-42
2021/01/27 09:15:34;;;;;;;1.70;1.20;;;15.80;59.20;;;;;;4995733;28;20023;-42
2021/01/27 09:18:06;;;;;;;2.08;1.17;;;15.80;59.10;;;;;;4995823;28;20031;-42
2021/01/27 09:20:33;;;;;;;2.10;0.70;;;15.80;59.00;;;;;;4995413;28;20022;-42
2021/01/27 09:23:02;;;;;;;0.93;0.60;;;15.80;58.80;;;;;;4995580;28;20072;-42
2021/01/27 09:25:28;;;;;;;1.50;0.90;;;15.80;58.70;;;;;;4995800;28;20030;-42
2021/01/27 09:28:05;;;;;;;1.75;0.70;;;15.80;58.60;;;;;;4995444;28;20081;-42
2021/01/27 09:30:31;;;;;;;1.50;0.80;;;15.80;58.50;;;;;;4995652;28;20045;-43
2021/01/27 09:33:18;;;;;;;2.40;0.90;;;15.80;58.30;;;;;;4995592;28;20389;-43
2021/01/27 09:35:46;;;;;;;1.10;0.73;;;15.80;58.30;;;;;;4995544;28;20093;-42
2021/01/27 09:38:20;;;;;;;1.33;0.60;;;15.80;58.20;;;;;;4995223;28;20027;-43
2021/01/27 09:40:47;;;;;;;2.17;0.73;;;15.80;58.00;;;;;;4995280;28;20049;-43
2021/01/27 09:43:16;;;;;;;1.45;0.80;;;15.80;58.00;;;;;;4995269;28;20030;-42
2021/01/27 09:45:45;;;;;;;1.40;0.60;;;15.80;57.90;;;;;;4995345;28;20034;-42
2021/01/27 09:48:12;;;;;;;1.15;0.70;;;15.80;57.80;;;;;;4995380;28;20019;-42
2021/01/27 09:50:41;;;;;;;0.70;0.60;;;15.80;57.80;;;;;;4995245;28;20077;-42
2021/01/27 09:53:12;;;;;;;0.45;0.43;;;15.80;57.60;;;;;;4995281;28;20022;-42
2021/01/27 09:55:41;;;;;;;1.13;0.60;;;15.80;57.70;;;;;;4994903;28;20027;-42
2021/01/27 09:58:06;;;;;;;0.60;0.60;;;15.80;57.60;;;;;;4994862;28;20022;-42
2021/01/27 10:00:35;;;;;;;2.65;0.70;;;15.80;57.60;;;;;;4995125;28;20042;-42
2021/01/27 10:03:26;;;;;;;1.98;0.93;;;15.80;57.50;;;;;;4978017;28;20092;-42
2021/01/27 10:05:52;;;;;;;0.70;0.60;;;15.70;57.40;;;;;;4994835;28;20030;-42
2021/01/27 10:08:40;;;;;;;0.90;0.60;;;15.80;57.40;;;;;;4994783;28;20488;-42
2021/01/27 10:11:33;;;;;;;0.82;0.70;;;15.80;57.30;;;;;;4995799;28;20062;-42
2021/01/27 10:14:12;;;;;;;1.50;0.60;;;15.70;57.20;;;;;;4994620;28;20014;-42
2021/01/27 10:16:54;;;;;;;0.80;0.60;;;15.70;57.20;;;;;;4994773;28;20414;-42
2021/01/27 10:19:24;;;;;;;0.70;0.60;;;15.70;57.20;;;;;;4994502;28;20035;-42
2021/01/27 10:21:52;;;;;;;0.80;0.80;;;15.70;57.10;;;;;;4994349;28;20454;-41
2021/01/27 10:24:50;;;;;;;1.08;0.88;;;15.70;57.10;;;;;;4994343;28;20030;-42
2021/01/27 10:27:37;;;;;;;2.47;0.90;;;15.70;57.00;;;;;;4994341;28;20265;-42
2021/01/27 10:30:15;;;;;;;2.58;0.80;;;15.70;56.90;;;;;;4994139;28;20069;-42
2021/01/27 10:32:43;;;;;;;1.33;0.77;;;15.70;56.80;;;;;;4994193;28;20026;-42
2021/01/27 10:35:24;;;;;;;2.45;0.60;;;15.70;56.80;;;;;;4994069;28;20026;-42
2021/01/27 10:37:51;;;;;;;2.40;0.90;;;15.70;56.90;;;;;;4994157;28;20027;-42
2021/01/27 10:40:22;;;;;;;0.90;0.80;;;15.70;56.80;;;;;;4994000;28;20022;-42
2021/01/27 10:42:55;;;;;;;1.20;0.70;;;15.70;56.70;;;;;;4993987;28;20505;-42
2021/01/27 10:45:40;;;;;;;1.25;0.98;;;15.70;56.70;;;;;;4994029;28;20030;-42
2021/01/27 10:48:11;;;;;;;1.42;0.77;;;15.70;56.70;;;;;;4994003;28;20093;-41
2021/01/27 10:51:03;;;;;;;2.05;0.65;;;15.80;56.70;;;;;;4994112;28;20105;-42
2021/01/27 10:53:34;;;;;;;1.13;0.90;;;15.70;57.10;;;;;;4983175;28;20041;-42
2021/01/27 10:56:00;;;;;;;2.20;1.00;;;15.70;58.90;;;;;;4975518;28;20034;-44
2021/01/27 10:58:25;;;;;;;0.70;0.70;;;15.70;59.30;;;;;;4993797;28;20089;-43
2021/01/27 11:00:51;;;;;;;1.15;0.90;;;15.80;60.10;;;;;;4993774;28;20033;-44
2021/01/27 11:03:17;;;;;;;1.95;0.90;;;15.70;60.80;;;;;;4993651;28;20033;-45
2021/01/27 11:05:44;;;;;;;0.93;0.60;;;15.60;61.20;;;;;;4993809;28;20030;-44
2021/01/27 11:08:26;;;;;;;2.08;1.17;;;15.60;62.20;;;;;;4993852;28;20049;-45
2021/01/27 11:10:52;;;;;;;0.77;0.77;;;15.70;62.80;;;;;;4994542;28;20486;-45
2021/01/27 11:13:17;;;;;;;1.45;0.77;;;15.60;63.20;;;;;;4993546;28;20029;-44
2021/01/27 11:15:43;;;;;;;0.82;0.70;;;15.60;63.50;;;;;;4993493;28;20034;-45
2021/01/27 11:18:09;;;;;;;0.82;0.80;;;15.60;64.00;;;;;;4993576;28;20018;-45
2021/01/27 11:20:34;;;;;;;1.35;0.70;;;15.60;64.30;;;;;;4993611;28;20032;-45
2021/01/27 11:23:00;;;;;;;1.13;0.70;;;15.60;64.60;;;;;;4993597;28;20025;-45
2021/01/27 11:25:27;;;;;;;0.93;0.93;;;15.40;64.90;;;;;;4993581;28;20500;-45
2021/01/27 11:27:54;;;;;;;1.27;0.98;;;15.60;65.40;;;;;;4993508;28;20018;-46
2021/01/27 11:30:23;;;;;;;1.35;0.80;;;15.60;65.80;;;;;;4993403;28;20095;-45
2021/01/27 11:32:49;;;;;;;0.75;0.68;;;15.60;65.90;;;;;;4992767;28;20355;-45
2021/01/27 11:35:16;;;;;;;1.25;0.60;;;15.60;66.10;;;;;;4993520;28;20018;-46
2021/01/27 11:37:43;;;;;;;1.20;0.70;;;15.60;66.30;;;;;;4993244;28;20577;-45
2021/01/27 11:40:10;;;;;;;1.65;0.90;;;15.70;66.60;;;;;;4993082;28;20418;-45
2021/01/27 11:42:36;;;;;;;0.93;0.82;;;15.60;66.60;;;;;;4993076;28;20118;-45
2021/01/27 11:45:04;;;;;;;1.33;0.73;;;15.60;66.80;;;;;;4993023;28;20050;-45
2021/01/27 11:47:30;;;;;;;1.30;0.80;;;15.60;67.00;;;;;;4993045;28;20445;-45
2021/01/27 11:49:56;;;;;;;1.58;0.75;;;15.70;67.60;;;;;;4993160;28;20034;-45
2021/01/27 11:52:21;;;;;;;2.08;0.98;;;15.70;68.10;;;;;;4992925;28;20084;-45
2021/01/27 11:54:50;;;;;;;1.10;0.70;;;15.50;67.80;;;;;;4992787;28;20046;-44
2021/01/27 11:57:16;;;;;;;1.35;0.73;;;15.70;68.10;;;;;;4992902;28;20026;-44
2021/01/27 11:59:42;;;;;;;1.33;0.90;;;15.70;68.10;;;;;;4992780;28;20030;-45
2021/01/27 12:02:08;;;;;;;2.13;0.90;;;15.70;68.20;;;;;;4992914;28;20057;-45
2021/01/27 12:04:34;;;;;;;3.47;0.70;;;15.70;68.30;;;;;;4992727;28;20129;-45
2021/01/27 12:07:00;;;;;;;1.63;0.82;;;15.70;68.40;;;;;;4992891;28;20124;-45
2021/01/27 12:09:28;;;;;;;0.88;0.70;;;15.70;68.60;;;;;;4992516;28;20034;-44
2021/01/27 12:11:57;;;;;;;1.35;0.93;;;15.80;68.50;;;;;;4993781;28;20054;-45
2021/01/27 12:14:23;;;;;;;1.33;0.70;;;15.70;68.60;;;;;;4992794;28;20113;-45
2021/01/27 12:16:49;;;;;;;1.25;0.77;;;15.70;68.60;;;;;;4992794;28;20384;-44
2021/01/27 12:19:15;;;;;;;0.80;0.70;;;15.70;68.70;;;;;;4992886;28;20029;-45
2021/01/27 12:21:40;;;;;;;0.73;0.70;;;15.80;68.80;;;;;;4992483;28;20023;-47
2021/01/27 12:24:06;;;;;;;1.00;0.70;;;15.70;68.60;;;;;;4992557;28;20058;-48
2021/01/27 12:26:32;;;;;;;0.90;0.80;;;15.80;68.80;;;;;;4992639;28;20456;-47
2021/01/27 12:28:58;;;;;;;0.90;0.77;;;15.80;68.90;;;;;;4992302;28;20046;-48
2021/01/27 12:31:24;;;;;;;0.93;0.82;;;15.80;68.70;;;;;;4992250;28;20014;-48
2021/01/27 12:33:51;;;;;;;1.02;0.70;;;15.90;68.60;;;;;;4992374;28;20030;-48
2021/01/27 12:36:17;;;;;;;0.90;0.70;;;15.90;68.70;;;;;;4992370;28;20019;-48
2021/01/27 12:38:43;;;;;;;0.80;0.70;;;16.00;68.50;;;;;;4992497;28;20022;-48
2021/01/27 12:41:08;;;;;;;1.08;0.60;;;16.10;68.30;;;;;;4992548;28;20492;-48
2021/01/27 12:43:34;;;;;;;0.77;0.77;;;16.10;68.80;;;;;;4992270;28;20057;-52
2021/01/27 12:46:02;;;;;;;1.10;0.85;;;16.20;68.10;;;;;;4996271;28;20039;-47
2021/01/27 12:48:31;;;;;;;1.10;0.88;;;16.20;67.70;;;;;;4996329;28;20106;-46
2021/01/27 12:50:57;;;;;;;0.93;0.73;;;16.30;67.80;;;;;;4996077;28;20465;-46
2021/01/27 12:53:25;;;;;;;0.88;0.88;;;16.40;68.10;;;;;;4996382;28;20073;-47
2021/01/27 12:55:50;;;;;;;1.58;0.93;;;16.40;68.20;;;;;;4996019;28;20028;-47
2021/01/27 12:58:16;;;;;;;1.42;1.00;;;16.50;68.60;;;;;;4995901;28;20621;-49
2021/01/27 13:00:42;;;;;;;3.22;1.10;;;16.60;68.70;;;;;;4996202;28;20023;-47
2021/01/27 13:03:08;;;;;;;3.90;1.25;;;16.60;68.30;;;;;;4996074;28;20057;-46
2021/01/27 13:05:34;;;;;;;1.00;0.77;;;16.70;68.10;;;;;;4995967;28;20026;-48
2021/01/27 13:08:00;;;;;;;1.20;0.90;;;16.70;67.60;;;;;;4995832;28;20037;-48
2021/01/27 13:10:25;;;;;;;2.17;1.17;;;16.70;67.50;;;;;;4996814;28;20065;-47
2021/01/27 13:12:51;;;;;;;1.27;1.13;;;16.80;67.40;;;;;;4996014;28;20023;-51
2021/01/27 13:15:19;;;;;;;1.42;1.05;;;16.70;67.30;;;;;;4995703;28;20080;-48
2021/01/27 13:17:47;;;;;;;0.82;0.82;;;16.80;67.30;;;;;;4995659;28;20409;-50
2021/01/27 13:20:15;;;;;;;1.35;0.93;;;16.70;67.10;;;;;;4995925;28;20541;-52
2021/01/27 13:22:40;;;;;;;1.25;0.93;;;16.80;67.10;;;;;;4995630;28;20388;-48